sensor_id;sensor_type;location;lat;lon;timestamp;temperature;humidity
46758;DHT22;32509;47.750;-3.396;2023-03-14T00:01:48;11.20;99.90
46758;DHT22;32509;47.750;-3.396;2023-03-14T00:04:14;11.20;99.90
46758;DHT22;32509;47.750;-3.396;2023-03-14T00:06:40;11.20;99.90
46758;DHT22;32509;47.750;-3.396;2023-03-14T00:09:06;11.20;99.90
46758;DHT22;32509;47.750;-3.396;2023-03-14T00:11:35;11.10;99.90
46758;DHT22;32509;47.750;-3.396;2023-03-14T00:14:00;11.20;99.90
46758;DHT22;32509;47.750;-3.396;2023-03-14T00:16:26;11.20;99.90
46758;DHT22;32509;47.750;-3.396;2023-03-14T00:18:52;11.20;99.90
46758;DHT22;32509;47.750;-3.396;2023-03-14T00:21:18;11.20;99.90
46758;DHT22;32509;47.750;-3.396;2023-03-14T00:23:44;11.30;99.90
46758;DHT22;32509;47.750;-3.396;2023-03-14T00:26:12;11.20;99.90
46758;DHT22;32509;47.750;-3.396;2023-03-14T00:28:38;11.20;99.90
46758;DHT22;32509;47.750;-3.396;2023-03-14T00:31:06;11.20;99.90
46758;DHT22;32509;47.750;-3.396;2023-03-14T00:33:32;11.20;99.90
46758;DHT22;32509;47.750;-3.396;2023-03-14T00:36:09;11.20;99.90
46758;DHT22;32509;47.750;-3.396;2023-03-14T00:38:37;11.10;99.90
46758;DHT22;32509;47.750;-3.396;2023-03-14T00:41:12;11.10;99.90
46758;DHT22;32509;47.750;-3.396;2023-03-14T00:43:38;11.00;99.90
46758;DHT22;32509;47.750;-3.396;2023-03-14T00:46:05;11.00;99.90
46758;DHT22;32509;47.750;-3.396;2023-03-14T00:48:30;11.10;99.90
46758;DHT22;32509;47.750;-3.396;2023-03-14T00:50:56;11.10;99.90
46758;DHT22;32509;47.750;-3.396;2023-03-14T00:53:22;11.10;99.90
46758;DHT22;32509;47.750;-3.396;2023-03-14T00:55:48;11.10;99.90
46758;DHT22;32509;47.750;-3.396;2023-03-14T00:58:15;11.00;99.90
46758;DHT22;32509;47.750;-3.396;2023-03-14T01:00:42;11.00;99.90
46758;DHT22;32509;47.750;-3.396;2023-03-14T01:03:09;11.00;99.90
46758;DHT22;32509;47.750;-3.396;2023-03-14T01:05:35;11.00;99.90
46758;DHT22;32509;47.750;-3.396;2023-03-14T01:08:01;11.00;99.90
46758;DHT22;32509;47.750;-3.396;2023-03-14T01:10:27;11.00;99.90
46758;DHT22;32509;47.750;-3.396;2023-03-14T01:12:53;11.00;99.90
46758;DHT22;32509;47.750;-3.396;2023-03-14T01:15:19;11.00;99.90
46758;DHT22;32509;47.750;-3.396;2023-03-14T01:17:45;11.00;99.90
46758;DHT22;32509;47.750;-3.396;2023-03-14T01:20:13;11.00;99.90
46758;DHT22;32509;47.750;-3.396;2023-03-14T01:22:39;11.00;99.90
46758;DHT22;32509;47.750;-3.396;2023-03-14T01:25:11;10.90;99.90
46758;DHT22;32509;47.750;-3.396;2023-03-14T01:27:37;10.90;99.90
46758;DHT22;32509;47.750;-3.396;2023-03-14T01:30:06;10.90;99.90
46758;DHT22;32509;47.750;-3.396;2023-03-14T01:32:33;10.90;99.90
46758;DHT22;32509;47.750;-3.396;2023-03-14T01:34:59;10.80;99.90
46758;DHT22;32509;47.750;-3.396;2023-03-14T01:37:25;10.80;99.90
46758;DHT22;32509;47.750;-3.396;2023-03-14T01:39:51;10.80;99.90
46758;DHT22;32509;47.750;-3.396;2023-03-14T01:42:17;10.80;99.90
46758;DHT22;32509;47.750;-3.396;2023-03-14T01:44:54;10.80;99.90
46758;DHT22;32509;47.750;-3.396;2023-03-14T01:47:21;10.80;99.90
46758;DHT22;32509;47.750;-3.396;2023-03-14T01:49:53;10.80;99.90
46758;DHT22;32509;47.750;-3.396;2023-03-14T01:52:27;10.80;99.90
46758;DHT22;32509;47.750;-3.396;2023-03-14T01:55:19;10.80;99.90
46758;DHT22;32509;47.750;-3.396;2023-03-14T01:57:54;10.80;99.90
46758;DHT22;32509;47.750;-3.396;2023-03-14T02:00:22;10.80;99.90
46758;DHT22;32509;47.750;-3.396;2023-03-14T02:02:55;10.80;99.90
46758;DHT22;32509;47.750;-3.396;2023-03-14T02:05:25;10.80;99.90
46758;DHT22;32509;47.750;-3.396;2023-03-14T02:07:56;10.80;99.90
46758;DHT22;32509;47.750;-3.396;2023-03-14T02:10:29;10.70;99.90
46758;DHT22;32509;47.750;-3.396;2023-03-14T02:12:56;10.70;99.90
46758;DHT22;32509;47.750;-3.396;2023-03-14T02:15:25;10.70;99.90
46758;DHT22;32509;47.750;-3.396;2023-03-14T02:17:51;10.70;99.90
46758;DHT22;32509;47.750;-3.396;2023-03-14T02:23:08;10.60;99.90
46758;DHT22;32509;47.750;-3.396;2023-03-14T02:25:54;10.70;99.90
46758;DHT22;32509;47.750;-3.396;2023-03-14T02:28:23;10.70;99.90
46758;DHT22;32509;47.750;-3.396;2023-03-14T02:30:49;10.70;99.90
46758;DHT22;32509;47.750;-3.396;2023-03-14T02:33:20;10.70;99.90
46758;DHT22;32509;47.750;-3.396;2023-03-14T02:35:53;10.80;99.90
46758;DHT22;32509;47.750;-3.396;2023-03-14T02:41:05;10.70;99.90
46758;DHT22;32509;47.750;-3.396;2023-03-14T02:43:31;10.70;99.90
46758;DHT22;32509;47.750;-3.396;2023-03-14T02:45:57;10.70;99.90
46758;DHT22;32509;47.750;-3.396;2023-03-14T02:48:48;10.70;99.90
46758;DHT22;32509;47.750;-3.396;2023-03-14T02:51:20;10.60;99.90
46758;DHT22;32509;47.750;-3.396;2023-03-14T02:53:46;10.60;99.90
46758;DHT22;32509;47.750;-3.396;2023-03-14T02:56:12;10.60;99.90
46758;DHT22;32509;47.750;-3.396;2023-03-14T02:58:38;10.70;99.90
46758;DHT22;32509;47.750;-3.396;2023-03-14T03:01:04;10.70;99.90
46758;DHT22;32509;47.750;-3.396;2023-03-14T03:03:30;10.70;99.90
46758;DHT22;32509;47.750;-3.396;2023-03-14T03:05:56;10.60;99.90
46758;DHT22;32509;47.750;-3.396;2023-03-14T03:08:24;10.70;99.90
46758;DHT22;32509;47.750;-3.396;2023-03-14T03:10:51;10.70;99.90
46758;DHT22;32509;47.750;-3.396;2023-03-14T03:13:17;10.70;99.90
46758;DHT22;32509;47.750;-3.396;2023-03-14T03:15:43;10.70;99.90
46758;DHT22;32509;47.750;-3.396;2023-03-14T03:18:09;10.60;99.90
46758;DHT22;32509;47.750;-3.396;2023-03-14T03:20:35;10.60;99.90
46758;DHT22;32509;47.750;-3.396;2023-03-14T03:23:01;10.60;99.90
46758;DHT22;32509;47.750;-3.396;2023-03-14T03:25:27;10.60;99.90
46758;DHT22;32509;47.750;-3.396;2023-03-14T03:27:53;10.50;99.90
46758;DHT22;32509;47.750;-3.396;2023-03-14T03:30:20;10.60;99.90
46758;DHT22;32509;47.750;-3.396;2023-03-14T03:32:46;10.60;99.90
46758;DHT22;32509;47.750;-3.396;2023-03-14T03:35:12;10.50;99.90
46758;DHT22;32509;47.750;-3.396;2023-03-14T03:37:38;10.50;99.90
46758;DHT22;32509;47.750;-3.396;2023-03-14T03:40:05;10.60;99.90
46758;DHT22;32509;47.750;-3.396;2023-03-14T03:42:32;10.50;99.90
46758;DHT22;32509;47.750;-3.396;2023-03-14T03:44:59;10.50;99.90
46758;DHT22;32509;47.750;-3.396;2023-03-14T03:47:25;10.50;99.90
46758;DHT22;32509;47.750;-3.396;2023-03-14T03:49:51;10.50;99.90
46758;DHT22;32509;47.750;-3.396;2023-03-14T03:52:17;10.50;99.90
46758;DHT22;32509;47.750;-3.396;2023-03-14T03:54:43;10.50;99.90
46758;DHT22;32509;47.750;-3.396;2023-03-14T03:57:08;10.40;99.90
46758;DHT22;32509;47.750;-3.396;2023-03-14T03:59:34;10.40;99.90
46758;DHT22;32509;47.750;-3.396;2023-03-14T04:02:00;10.40;99.90
46758;DHT22;32509;47.750;-3.396;2023-03-14T04:04:26;10.40;99.90
46758;DHT22;32509;47.750;-3.396;2023-03-14T04:06:52;10.30;99.90
46758;DHT22;32509;47.750;-3.396;2023-03-14T04:09:17;10.40;99.90
46758;DHT22;32509;47.750;-3.396;2023-03-14T04:11:43;10.40;99.90
46758;DHT22;32509;47.750;-3.396;2023-03-14T04:14:09;10.30;99.90
46758;DHT22;32509;47.750;-3.396;2023-03-14T04:16:35;10.30;99.90
46758;DHT22;32509;47.750;-3.396;2023-03-14T04:19:02;10.30;99.90
46758;DHT22;32509;47.750;-3.396;2023-03-14T04:21:28;10.30;99.90
46758;DHT22;32509;47.750;-3.396;2023-03-14T04:23:53;10.40;99.90
46758;DHT22;32509;47.750;-3.396;2023-03-14T04:26:22;10.40;99.90
46758;DHT22;32509;47.750;-3.396;2023-03-14T04:28:48;10.40;99.90
46758;DHT22;32509;47.750;-3.396;2023-03-14T04:31:21;10.50;99.90
46758;DHT22;32509;47.750;-3.396;2023-03-14T04:33:47;10.50;99.90
46758;DHT22;32509;47.750;-3.396;2023-03-14T04:36:12;10.50;99.90
46758;DHT22;32509;47.750;-3.396;2023-03-14T04:38:39;10.50;99.90
46758;DHT22;32509;47.750;-3.396;2023-03-14T04:41:05;10.40;99.90
46758;DHT22;32509;47.750;-3.396;2023-03-14T04:43:31;10.40;99.90
46758;DHT22;32509;47.750;-3.396;2023-03-14T04:45:58;10.40;99.90
46758;DHT22;32509;47.750;-3.396;2023-03-14T04:48:25;10.40;99.90
46758;DHT22;32509;47.750;-3.396;2023-03-14T04:50:54;10.40;99.90
46758;DHT22;32509;47.750;-3.396;2023-03-14T04:53:20;10.40;99.90
46758;DHT22;32509;47.750;-3.396;2023-03-14T04:55:52;10.40;99.90
46758;DHT22;32509;47.750;-3.396;2023-03-14T04:58:19;10.40;99.90
46758;DHT22;32509;47.750;-3.396;2023-03-14T05:00:45;10.30;99.90
46758;DHT22;32509;47.750;-3.396;2023-03-14T05:03:12;10.30;99.90
46758;DHT22;32509;47.750;-3.396;2023-03-14T05:05:42;10.30;99.90
46758;DHT22;32509;47.750;-3.396;2023-03-14T05:08:09;10.30;99.90
46758;DHT22;32509;47.750;-3.396;2023-03-14T05:10:34;10.30;99.90
46758;DHT22;32509;47.750;-3.396;2023-03-14T05:13:00;10.30;99.90
46758;DHT22;32509;47.750;-3.396;2023-03-14T05:15:26;10.30;99.90
46758;DHT22;32509;47.750;-3.396;2023-03-14T05:17:54;10.40;99.90
46758;DHT22;32509;47.750;-3.396;2023-03-14T05:20:21;10.40;99.90
46758;DHT22;32509;47.750;-3.396;2023-03-14T05:22:47;10.40;99.90
46758;DHT22;32509;47.750;-3.396;2023-03-14T05:25:12;10.40;99.90
46758;DHT22;32509;47.750;-3.396;2023-03-14T05:27:38;10.40;99.90
46758;DHT22;32509;47.750;-3.396;2023-03-14T05:30:05;10.40;99.90
46758;DHT22;32509;47.750;-3.396;2023-03-14T05:32:31;10.40;99.90
46758;DHT22;32509;47.750;-3.396;2023-03-14T05:34:57;10.40;99.90
46758;DHT22;32509;47.750;-3.396;2023-03-14T05:37:25;10.40;99.90
46758;DHT22;32509;47.750;-3.396;2023-03-14T05:39:51;10.30;99.90
46758;DHT22;32509;47.750;-3.396;2023-03-14T05:42:17;10.30;99.90
46758;DHT22;32509;47.750;-3.396;2023-03-14T05:44:43;10.30;99.90
46758;DHT22;32509;47.750;-3.396;2023-03-14T05:47:09;10.30;99.90
46758;DHT22;32509;47.750;-3.396;2023-03-14T05:49:35;10.30;99.90
46758;DHT22;32509;47.750;-3.396;2023-03-14T05:52:00;10.20;99.90
46758;DHT22;32509;47.750;-3.396;2023-03-14T05:54:26;10.10;99.90
46758;DHT22;32509;47.750;-3.396;2023-03-14T05:56:52;10.10;99.90
46758;DHT22;32509;47.750;-3.396;2023-03-14T05:59:18;10.00;99.90
46758;DHT22;32509;47.750;-3.396;2023-03-14T06:01:43;10.00;99.90
46758;DHT22;32509;47.750;-3.396;2023-03-14T06:04:09;10.00;99.90
46758;DHT22;32509;47.750;-3.396;2023-03-14T06:06:35;10.00;99.90
46758;DHT22;32509;47.750;-3.396;2023-03-14T06:09:01;10.10;99.90
46758;DHT22;32509;47.750;-3.396;2023-03-14T06:11:26;10.10;99.90
46758;DHT22;32509;47.750;-3.396;2023-03-14T06:13:52;10.10;99.90
46758;DHT22;32509;47.750;-3.396;2023-03-14T06:16:18;10.10;99.90
46758;DHT22;32509;47.750;-3.396;2023-03-14T06:18:44;10.20;99.90
46758;DHT22;32509;47.750;-3.396;2023-03-14T06:21:12;10.20;99.90
46758;DHT22;32509;47.750;-3.396;2023-03-14T06:23:38;10.20;99.90
46758;DHT22;32509;47.750;-3.396;2023-03-14T06:26:04;10.20;99.90
46758;DHT22;32509;47.750;-3.396;2023-03-14T06:28:30;10.30;99.90
46758;DHT22;32509;47.750;-3.396;2023-03-14T06:30:56;10.30;99.90
46758;DHT22;32509;47.750;-3.396;2023-03-14T06:33:22;10.30;99.90
46758;DHT22;32509;47.750;-3.396;2023-03-14T06:35:48;10.30;99.90
46758;DHT22;32509;47.750;-3.396;2023-03-14T06:38:13;10.30;99.90
46758;DHT22;32509;47.750;-3.396;2023-03-14T06:40:39;10.30;99.90
46758;DHT22;32509;47.750;-3.396;2023-03-14T06:43:05;10.30;99.90
46758;DHT22;32509;47.750;-3.396;2023-03-14T06:45:30;10.30;99.90
46758;DHT22;32509;47.750;-3.396;2023-03-14T06:47:56;10.30;99.90
46758;DHT22;32509;47.750;-3.396;2023-03-14T06:50:22;10.30;99.90
46758;DHT22;32509;47.750;-3.396;2023-03-14T06:52:48;10.30;99.90
46758;DHT22;32509;47.750;-3.396;2023-03-14T06:55:15;10.30;99.90
46758;DHT22;32509;47.750;-3.396;2023-03-14T06:57:40;10.30;99.90
46758;DHT22;32509;47.750;-3.396;2023-03-14T07:00:07;10.30;99.90
46758;DHT22;32509;47.750;-3.396;2023-03-14T07:02:33;10.30;99.90
46758;DHT22;32509;47.750;-3.396;2023-03-14T07:04:59;10.20;99.90
46758;DHT22;32509;47.750;-3.396;2023-03-14T07:07:26;10.20;99.90
46758;DHT22;32509;47.750;-3.396;2023-03-14T07:09:52;10.20;99.90
46758;DHT22;32509;47.750;-3.396;2023-03-14T07:12:18;10.20;99.90
46758;DHT22;32509;47.750;-3.396;2023-03-14T07:14:44;10.20;99.90
46758;DHT22;32509;47.750;-3.396;2023-03-14T07:17:09;10.20;99.90
46758;DHT22;32509;47.750;-3.396;2023-03-14T07:19:35;10.20;99.90
46758;DHT22;32509;47.750;-3.396;2023-03-14T07:22:01;10.30;99.90
46758;DHT22;32509;47.750;-3.396;2023-03-14T07:24:27;10.20;99.90
46758;DHT22;32509;47.750;-3.396;2023-03-14T07:26:54;10.20;99.90
46758;DHT22;32509;47.750;-3.396;2023-03-14T07:29:20;10.20;99.90
46758;DHT22;32509;47.750;-3.396;2023-03-14T07:31:45;10.30;99.90
46758;DHT22;32509;47.750;-3.396;2023-03-14T07:34:11;10.30;99.90
46758;DHT22;32509;47.750;-3.396;2023-03-14T07:36:37;10.30;99.90
46758;DHT22;32509;47.750;-3.396;2023-03-14T07:39:03;10.30;99.90
46758;DHT22;32509;47.750;-3.396;2023-03-14T07:41:30;10.30;99.90
46758;DHT22;32509;47.750;-3.396;2023-03-14T07:43:55;10.30;99.90
46758;DHT22;32509;47.750;-3.396;2023-03-14T07:46:21;10.40;99.90
46758;DHT22;32509;47.750;-3.396;2023-03-14T07:48:47;10.40;99.90
46758;DHT22;32509;47.750;-3.396;2023-03-14T07:51:13;10.40;99.90
46758;DHT22;32509;47.750;-3.396;2023-03-14T07:53:39;10.40;99.90
46758;DHT22;32509;47.750;-3.396;2023-03-14T07:56:05;10.40;99.90
46758;DHT22;32509;47.750;-3.396;2023-03-14T07:58:31;10.50;99.90
46758;DHT22;32509;47.750;-3.396;2023-03-14T08:00:58;10.40;99.90
46758;DHT22;32509;47.750;-3.396;2023-03-14T08:03:24;10.50;99.90
46758;DHT22;32509;47.750;-3.396;2023-03-14T08:05:50;10.50;99.90
46758;DHT22;32509;47.750;-3.396;2023-03-14T08:08:17;10.50;99.90
46758;DHT22;32509;47.750;-3.396;2023-03-14T08:10:43;10.50;99.90
46758;DHT22;32509;47.750;-3.396;2023-03-14T08:13:09;10.50;99.90
46758;DHT22;32509;47.750;-3.396;2023-03-14T08:15:36;10.60;99.90
46758;DHT22;32509;47.750;-3.396;2023-03-14T08:18:03;10.50;99.90
46758;DHT22;32509;47.750;-3.396;2023-03-14T08:20:29;10.60;99.90
46758;DHT22;32509;47.750;-3.396;2023-03-14T08:22:59;10.60;99.90
46758;DHT22;32509;47.750;-3.396;2023-03-14T08:25:26;10.60;99.90
46758;DHT22;32509;47.750;-3.396;2023-03-14T08:27:53;10.60;99.90
46758;DHT22;32509;47.750;-3.396;2023-03-14T08:30:20;10.60;99.90
46758;DHT22;32509;47.750;-3.396;2023-03-14T08:32:46;10.60;99.90
46758;DHT22;32509;47.750;-3.396;2023-03-14T08:35:12;10.70;99.90
46758;DHT22;32509;47.750;-3.396;2023-03-14T08:37:38;10.70;99.90
46758;DHT22;32509;47.750;-3.396;2023-03-14T08:40:05;10.70;99.90
46758;DHT22;32509;47.750;-3.396;2023-03-14T08:42:41;10.70;99.90
46758;DHT22;32509;47.750;-3.396;2023-03-14T08:45:08;10.70;99.90
46758;DHT22;32509;47.750;-3.396;2023-03-14T08:47:34;10.70;99.90
46758;DHT22;32509;47.750;-3.396;2023-03-14T08:50:00;10.70;99.90
46758;DHT22;32509;47.750;-3.396;2023-03-14T08:52:26;10.70;99.90
46758;DHT22;32509;47.750;-3.396;2023-03-14T08:54:51;10.70;99.90
46758;DHT22;32509;47.750;-3.396;2023-03-14T08:57:17;10.70;99.90
46758;DHT22;32509;47.750;-3.396;2023-03-14T08:59:43;10.70;99.90
46758;DHT22;32509;47.750;-3.396;2023-03-14T09:02:12;10.70;99.90
46758;DHT22;32509;47.750;-3.396;2023-03-14T09:04:38;10.70;99.90
46758;DHT22;32509;47.750;-3.396;2023-03-14T09:07:04;10.70;99.90
46758;DHT22;32509;47.750;-3.396;2023-03-14T09:09:30;10.70;99.90
46758;DHT22;32509;47.750;-3.396;2023-03-14T09:11:57;10.70;99.90
46758;DHT22;32509;47.750;-3.396;2023-03-14T09:14:23;10.70;99.90
46758;DHT22;32509;47.750;-3.396;2023-03-14T09:16:49;10.70;99.90
46758;DHT22;32509;47.750;-3.396;2023-03-14T09:19:17;10.80;99.90
46758;DHT22;32509;47.750;-3.396;2023-03-14T09:21:43;10.70;99.90
46758;DHT22;32509;47.750;-3.396;2023-03-14T09:24:10;10.70;99.90
46758;DHT22;32509;47.750;-3.396;2023-03-14T09:26:36;10.70;99.90
46758;DHT22;32509;47.750;-3.396;2023-03-14T09:29:02;10.70;99.90
46758;DHT22;32509;47.750;-3.396;2023-03-14T09:31:28;10.80;99.90
46758;DHT22;32509;47.750;-3.396;2023-03-14T09:33:55;10.80;99.90
46758;DHT22;32509;47.750;-3.396;2023-03-14T09:36:20;10.80;99.90
46758;DHT22;32509;47.750;-3.396;2023-03-14T09:38:46;10.80;99.90
46758;DHT22;32509;47.750;-3.396;2023-03-14T09:41:18;10.90;99.90
46758;DHT22;32509;47.750;-3.396;2023-03-14T09:43:45;10.90;99.90
46758;DHT22;32509;47.750;-3.396;2023-03-14T09:46:12;10.90;99.90
46758;DHT22;32509;47.750;-3.396;2023-03-14T09:48:39;10.90;99.90
46758;DHT22;32509;47.750;-3.396;2023-03-14T09:51:17;10.90;99.90
46758;DHT22;32509;47.750;-3.396;2023-03-14T09:53:47;10.90;99.90
46758;DHT22;32509;47.750;-3.396;2023-03-14T09:56:25;10.90;99.90
46758;DHT22;32509;47.750;-3.396;2023-03-14T09:58:58;10.80;99.90
46758;DHT22;32509;47.750;-3.396;2023-03-14T10:01:27;10.90;99.90
46758;DHT22;32509;47.750;-3.396;2023-03-14T10:03:59;10.90;99.90
46758;DHT22;32509;47.750;-3.396;2023-03-14T10:06:27;10.90;99.90
46758;DHT22;32509;47.750;-3.396;2023-03-14T10:08:54;10.90;99.90
46758;DHT22;32509;47.750;-3.396;2023-03-14T10:11:22;10.90;99.90
46758;DHT22;32509;47.750;-3.396;2023-03-14T10:14:09;10.90;99.90
46758;DHT22;32509;47.750;-3.396;2023-03-14T10:16:44;10.90;99.90
46758;DHT22;32509;47.750;-3.396;2023-03-14T10:19:14;10.90;99.90
46758;DHT22;32509;47.750;-3.396;2023-03-14T10:21:52;11.00;99.90
46758;DHT22;32509;47.750;-3.396;2023-03-14T10:24:37;11.00;99.90
46758;DHT22;32509;47.750;-3.396;2023-03-14T10:27:05;11.00;99.90
46758;DHT22;32509;47.750;-3.396;2023-03-14T10:29:54;11.00;99.90
46758;DHT22;32509;47.750;-3.396;2023-03-14T10:32:22;11.00;99.90
46758;DHT22;32509;47.750;-3.396;2023-03-14T10:38:35;11.10;99.90
46758;DHT22;32509;47.750;-3.396;2023-03-14T10:40:47;11.10;99.90
46758;DHT22;32509;47.750;-3.396;2023-03-14T10:43:18;11.10;99.90
46758;DHT22;32509;47.750;-3.396;2023-03-14T10:45:54;11.10;99.90
46758;DHT22;32509;47.750;-3.396;2023-03-14T10:48:33;11.20;99.90
46758;DHT22;32509;47.750;-3.396;2023-03-14T10:53:44;11.30;99.90
46758;DHT22;32509;47.750;-3.396;2023-03-14T10:56:17;11.30;99.90
46758;DHT22;32509;47.750;-3.396;2023-03-14T10:58:46;11.30;99.90
46758;DHT22;32509;47.750;-3.396;2023-03-14T11:06:56;11.20;99.90
46758;DHT22;32509;47.750;-3.396;2023-03-14T11:12:12;11.40;99.90
46758;DHT22;32509;47.750;-3.396;2023-03-14T11:14:51;11.40;99.90
46758;DHT22;32509;47.750;-3.396;2023-03-14T11:17:21;11.30;99.90
46758;DHT22;32509;47.750;-3.396;2023-03-14T11:21:08;11.30;99.90
46758;DHT22;32509;47.750;-3.396;2023-03-14T11:23:40;11.30;99.90
46758;DHT22;32509;47.750;-3.396;2023-03-14T11:28:37;11.20;99.90
46758;DHT22;32509;47.750;-3.396;2023-03-14T11:31:16;11.30;99.90
46758;DHT22;32509;47.750;-3.396;2023-03-14T11:36:44;11.40;99.90
46758;DHT22;32509;47.750;-3.396;2023-03-14T11:39:15;11.40;99.90
46758;DHT22;32509;47.750;-3.396;2023-03-14T11:41:45;11.40;99.90
46758;DHT22;32509;47.750;-3.396;2023-03-14T11:44:25;11.40;99.90
46758;DHT22;32509;47.750;-3.396;2023-03-14T11:49:30;11.50;99.90
46758;DHT22;32509;47.750;-3.396;2023-03-14T11:52:03;11.50;99.90
46758;DHT22;32509;47.750;-3.396;2023-03-14T11:57:40;11.50;99.90
46758;DHT22;32509;47.750;-3.396;2023-03-14T12:00:20;11.50;99.90
46758;DHT22;32509;47.750;-3.396;2023-03-14T12:03:17;11.50;99.90
46758;DHT22;32509;47.750;-3.396;2023-03-14T12:11:22;11.50;99.90
46758;DHT22;32509;47.750;-3.396;2023-03-14T12:13:52;11.60;99.90
46758;DHT22;32509;47.750;-3.396;2023-03-14T12:16:38;11.60;99.90
46758;DHT22;32509;47.750;-3.396;2023-03-14T12:21:54;11.60;99.90
46758;DHT22;32509;47.750;-3.396;2023-03-14T12:24:25;11.70;99.90
46758;DHT22;32509;47.750;-3.396;2023-03-14T12:27:00;11.60;99.90
46758;DHT22;32509;47.750;-3.396;2023-03-14T12:29:27;11.70;99.90
46758;DHT22;32509;47.750;-3.396;2023-03-14T12:32:24;11.70;99.90
46758;DHT22;32509;47.750;-3.396;2023-03-14T12:34:50;11.70;99.90
46758;DHT22;32509;47.750;-3.396;2023-03-14T12:37:33;11.70;99.90
46758;DHT22;32509;47.750;-3.396;2023-03-14T12:40:17;11.60;99.90
46758;DHT22;32509;47.750;-3.396;2023-03-14T12:45:32;11.60;99.90
46758;DHT22;32509;47.750;-3.396;2023-03-14T12:48:23;11.50;99.90
46758;DHT22;32509;47.750;-3.396;2023-03-14T12:51:00;11.60;99.90
46758;DHT22;32509;47.750;-3.396;2023-03-14T13:07:02;11.50;99.90
46758;DHT22;32509;47.750;-3.396;2023-03-14T13:12:13;11.50;99.90
46758;DHT22;32509;47.750;-3.396;2023-03-14T13:14:48;11.50;99.90
46758;DHT22;32509;47.750;-3.396;2023-03-14T13:17:15;11.60;99.90
46758;DHT22;32509;47.750;-3.396;2023-03-14T13:19:52;11.60;99.90
46758;DHT22;32509;47.750;-3.396;2023-03-14T13:22:27;11.60;99.90
46758;DHT22;32509;47.750;-3.396;2023-03-14T13:25:09;11.60;99.90
46758;DHT22;32509;47.750;-3.396;2023-03-14T13:27:36;11.60;99.90
46758;DHT22;32509;47.750;-3.396;2023-03-14T13:30:14;11.60;99.90
46758;DHT22;32509;47.750;-3.396;2023-03-14T13:32:43;11.60;99.90
46758;DHT22;32509;47.750;-3.396;2023-03-14T13:35:54;11.60;99.90
46758;DHT22;32509;47.750;-3.396;2023-03-14T13:38:26;11.60;99.90
46758;DHT22;32509;47.750;-3.396;2023-03-14T13:40:54;11.70;99.90
46758;DHT22;32509;47.750;-3.396;2023-03-14T13:43:30;11.70;99.90
46758;DHT22;32509;47.750;-3.396;2023-03-14T13:48:29;11.70;99.90
46758;DHT22;32509;47.750;-3.396;2023-03-14T13:50:56;11.70;99.90
46758;DHT22;32509;47.750;-3.396;2023-03-14T13:53:24;11.70;99.90
46758;DHT22;32509;47.750;-3.396;2023-03-14T13:55:51;11.80;99.90
46758;DHT22;32509;47.750;-3.396;2023-03-14T13:58:23;11.80;99.90
46758;DHT22;32509;47.750;-3.396;2023-03-14T14:03:36;11.80;99.90
46758;DHT22;32509;47.750;-3.396;2023-03-14T14:06:10;11.80;99.90
46758;DHT22;32509;47.750;-3.396;2023-03-14T14:08:40;11.80;99.90
46758;DHT22;32509;47.750;-3.396;2023-03-14T14:11:06;11.80;99.90
46758;DHT22;32509;47.750;-3.396;2023-03-14T14:13:33;11.80;99.90
46758;DHT22;32509;47.750;-3.396;2023-03-14T14:16:01;11.80;99.90
46758;DHT22;32509;47.750;-3.396;2023-03-14T14:18:29;11.80;99.90
46758;DHT22;32509;47.750;-3.396;2023-03-14T14:20:56;11.80;99.90
46758;DHT22;32509;47.750;-3.396;2023-03-14T14:23:25;11.70;99.90
46758;DHT22;32509;47.750;-3.396;2023-03-14T14:25:54;11.60;99.90
46758;DHT22;32509;47.750;-3.396;2023-03-14T14:28:36;11.60;99.90
46758;DHT22;32509;47.750;-3.396;2023-03-14T14:31:22;11.60;99.90
46758;DHT22;32509;47.750;-3.396;2023-03-14T14:33:56;11.60;99.90
46758;DHT22;32509;47.750;-3.396;2023-03-14T14:36:29;11.50;99.90
46758;DHT22;32509;47.750;-3.396;2023-03-14T14:39:17;11.50;99.90
46758;DHT22;32509;47.750;-3.396;2023-03-14T14:41:44;11.40;99.90
46758;DHT22;32509;47.750;-3.396;2023-03-14T14:44:16;11.40;99.90
46758;DHT22;32509;47.750;-3.396;2023-03-14T14:46:42;11.40;99.90
46758;DHT22;32509;47.750;-3.396;2023-03-14T14:49:17;11.40;99.90
46758;DHT22;32509;47.750;-3.396;2023-03-14T14:51:48;11.50;99.90
46758;DHT22;32509;47.750;-3.396;2023-03-14T14:54:19;11.50;99.90
46758;DHT22;32509;47.750;-3.396;2023-03-14T14:56:48;11.50;99.90
46758;DHT22;32509;47.750;-3.396;2023-03-14T14:59:27;11.50;99.90
46758;DHT22;32509;47.750;-3.396;2023-03-14T15:02:01;11.40;99.90
46758;DHT22;32509;47.750;-3.396;2023-03-14T15:04:30;11.40;99.90
46758;DHT22;32509;47.750;-3.396;2023-03-14T15:06:57;11.50;99.90
46758;DHT22;32509;47.750;-3.396;2023-03-14T15:09:23;11.60;99.90
46758;DHT22;32509;47.750;-3.396;2023-03-14T15:11:50;11.50;99.90
46758;DHT22;32509;47.750;-3.396;2023-03-14T15:14:16;11.60;99.90
46758;DHT22;32509;47.750;-3.396;2023-03-14T15:16:41;11.60;99.90
46758;DHT22;32509;47.750;-3.396;2023-03-14T15:19:24;11.60;99.90
46758;DHT22;32509;47.750;-3.396;2023-03-14T15:21:53;11.60;99.90
46758;DHT22;32509;47.750;-3.396;2023-03-14T15:24:19;11.60;99.90
46758;DHT22;32509;47.750;-3.396;2023-03-14T15:26:45;11.60;99.90
46758;DHT22;32509;47.750;-3.396;2023-03-14T15:29:11;11.60;99.90
46758;DHT22;32509;47.750;-3.396;2023-03-14T15:31:39;11.60;99.90
46758;DHT22;32509;47.750;-3.396;2023-03-14T15:34:05;11.60;99.90
46758;DHT22;32509;47.750;-3.396;2023-03-14T15:36:32;11.60;99.90
46758;DHT22;32509;47.750;-3.396;2023-03-14T15:38:59;11.60;99.90
46758;DHT22;32509;47.750;-3.396;2023-03-14T15:41:26;11.60;99.90
46758;DHT22;32509;47.750;-3.396;2023-03-14T15:43:52;11.70;99.90
46758;DHT22;32509;47.750;-3.396;2023-03-14T15:46:17;11.60;99.90
46758;DHT22;32509;47.750;-3.396;2023-03-14T15:48:44;11.70;99.90
46758;DHT22;32509;47.750;-3.396;2023-03-14T15:51:10;11.70;99.90
46758;DHT22;32509;47.750;-3.396;2023-03-14T15:53:37;11.70;99.90
46758;DHT22;32509;47.750;-3.396;2023-03-14T15:56:04;11.70;99.90
46758;DHT22;32509;47.750;-3.396;2023-03-14T15:58:30;11.70;99.90
46758;DHT22;32509;47.750;-3.396;2023-03-14T16:01:00;11.70;99.90
46758;DHT22;32509;47.750;-3.396;2023-03-14T16:03:27;11.70;99.90
46758;DHT22;32509;47.750;-3.396;2023-03-14T16:05:53;11.70;99.90
46758;DHT22;32509;47.750;-3.396;2023-03-14T16:08:19;11.70;99.90
46758;DHT22;32509;47.750;-3.396;2023-03-14T16:10:45;11.70;99.90
46758;DHT22;32509;47.750;-3.396;2023-03-14T16:13:11;11.70;99.90
46758;DHT22;32509;47.750;-3.396;2023-03-14T16:15:37;11.70;99.90
46758;DHT22;32509;47.750;-3.396;2023-03-14T16:18:03;11.70;99.90
46758;DHT22;32509;47.750;-3.396;2023-03-14T16:20:30;11.70;99.90
46758;DHT22;32509;47.750;-3.396;2023-03-14T16:22:55;11.70;99.90
46758;DHT22;32509;47.750;-3.396;2023-03-14T16:25:22;11.70;99.90
46758;DHT22;32509;47.750;-3.396;2023-03-14T16:27:47;11.70;99.90
46758;DHT22;32509;47.750;-3.396;2023-03-14T16:30:14;11.60;99.90